北京 の空港の天気 - METARとTAF

北京首都国際空港 ( ZBAA / PEK ) - 中国 北京市
飛行場実況気象(Metar)
観測時間05/26 06:30 CST (05/25 22:30 UTC)
風向・風速北 3m/s
視程10km以上
天気現象
なし
気温17℃
湿度83%
気圧1011hPa
METARZBAA 252230Z 36003MPS CAVOK 17/14 Q1011 NOSIG
過去の天気等 Google飛行場航空写真 Wunderground天気予報

過去48時間のMETAR

飛行場予報(TAF)
発表時間: 5/25 23:07 CST (5/25 15:07 UTC)
予報対象時間: 26日2時 CST ~ 27日2時 CST
風向・風速南南西 4m/s
視程10km以上
なし
TAF ZBAA 251507Z 2518/2618 20004MPS CAVOK TX27/2607Z TN14/2521Z